Time;durP1;ratioP1;P1;durP2;ratioP2;P2;SDS_P1;SDS_P2;PMS_P1;PMS_P2;Temp;Humidity;BMP_temperature;BMP_pressure;BME280_temperature;BME280_humidity;BME280_pressure;Samples;Min_cycle;Max_cycle;Signal;HPM_P1;HPM_P2
2022/11/29 00:00:10;;;;;;;9.85;1.35;;;;;;;;;;4894295;29;20071;-75
2022/11/29 00:02:42;;;;;;;12.63;1.20;;;;;;;;;;4894131;29;20063;-73
2022/11/29 00:05:13;;;;;;;8.18;1.30;;;;;;;;;;4893712;29;20060;-74
2022/11/29 00:07:42;;;;;;;8.73;1.60;;;;;;;;;;4893021;29;20064;-74
2022/11/29 00:10:12;;;;;;;8.05;0.85;;;;;;;;;;4893183;29;20064;-74
2022/11/29 00:12:42;;;;;;;8.70;1.15;;;;;;;;;;4893150;29;20059;-75
2022/11/29 00:15:12;;;;;;;9.45;1.25;;;;;;;;;;4891828;29;20052;-75
2022/11/29 00:17:42;;;;;;;6.95;1.13;;;;;;;;;;4893316;29;20087;-74
2022/11/29 00:20:12;;;;;;;4.05;0.98;;;;;;;;;;4893180;29;20393;-75
2022/11/29 00:22:41;;;;;;;5.85;1.20;;;;;;;;;;4869409;29;20493;-75
2022/11/29 00:25:11;;;;;;;7.63;1.30;;;;;;;;;;4862070;29;20870;-76
2022/11/29 00:27:41;;;;;;;7.50;0.90;;;;;;;;;;4858823;29;20053;-74
2022/11/29 00:30:12;;;;;;;7.18;1.20;;;;;;;;;;4856035;29;20061;-74
2022/11/29 00:32:42;;;;;;;5.13;1.02;;;;;;;;;;4860969;29;20041;-75
2022/11/29 00:35:12;;;;;;;4.13;0.60;;;;;;;;;;4855648;29;20061;-74
2022/11/29 00:37:41;;;;;;;3.75;0.73;;;;;;;;;;4860313;29;20057;-75
2022/11/29 00:40:12;;;;;;;9.57;0.98;;;;;;;;;;4871834;29;20052;-74
2022/11/29 00:42:42;;;;;;;6.45;0.73;;;;;;;;;;4874102;29;20056;-74
2022/11/29 00:45:12;;;;;;;8.88;1.45;;;;;;;;;;4863853;29;20049;-75
2022/11/29 00:47:42;;;;;;;10.75;1.17;;;;;;;;;;4871657;29;20060;-73
2022/11/29 00:50:12;;;;;;;5.88;1.23;;;;;;;;;;4863801;29;20045;-75
2022/11/29 00:52:42;;;;;;;9.50;1.15;;;;;;;;;;4867237;29;20510;-75
2022/11/29 00:55:12;;;;;;;4.82;1.13;;;;;;;;;;4863113;29;20065;-77
2022/11/29 00:57:42;;;;;;;5.03;1.00;;;;;;;;;;4862636;29;20410;-74
2022/11/29 01:00:12;;;;;;;8.38;1.83;;;;;;;;;;4855133;29;20053;-75
2022/11/29 01:02:42;;;;;;;6.60;1.15;;;;;;;;;;4854703;29;20038;-76
2022/11/29 01:05:12;;;;;;;9.85;1.40;;;;;;;;;;4855030;29;20048;-73
2022/11/29 01:07:41;;;;;;;3.40;0.90;;;;;;;;;;4853929;29;20057;-76
2022/11/29 01:10:11;;;;;;;6.32;1.20;;;;;;;;;;4858527;29;20817;-75
2022/11/29 01:12:41;;;;;;;2.13;0.60;;;;;;;;;;4867172;29;20049;-74
2022/11/29 01:15:11;;;;;;;4.22;1.00;;;;;;;;;;4870733;29;20578;-74
2022/11/29 01:17:41;;;;;;;3.20;0.82;;;;;;;;;;4871330;29;20049;-76
2022/11/29 01:20:12;;;;;;;8.30;0.85;;;;;;;;;;4871296;29;20041;-74
2022/11/29 01:22:42;;;;;;;5.75;0.90;;;;;;;;;;4876669;29;20049;-76
2022/11/29 01:25:13;;;;;;;6.78;1.00;;;;;;;;;;4873015;29;20052;-74
2022/11/29 01:27:43;;;;;;;7.60;1.00;;;;;;;;;;4873745;29;20513;-75
2022/11/29 01:30:14;;;;;;;3.28;0.90;;;;;;;;;;4873092;29;20060;-73
2022/11/29 01:32:44;;;;;;;3.60;0.82;;;;;;;;;;4873375;29;20420;-75
2022/11/29 01:35:13;;;;;;;7.07;1.02;;;;;;;;;;4867394;29;20535;-75
2022/11/29 01:37:43;;;;;;;3.78;0.70;;;;;;;;;;4854614;29;20053;-73
2022/11/29 01:40:13;;;;;;;3.78;0.50;;;;;;;;;;4854934;29;20045;-73
2022/11/29 01:42:43;;;;;;;2.92;0.77;;;;;;;;;;4854573;29;20457;-74
2022/11/29 01:45:21;;;;;;;1.88;0.75;;;;;;;;;;4852911;29;20061;-73
2022/11/29 01:47:56;;;;;;;5.82;0.90;;;;;;;;;;4851682;29;20072;-74
2022/11/29 01:50:26;;;;;;;8.00;1.13;;;;;;;;;;4851841;29;20050;-73
2022/11/29 01:52:57;;;;;;;4.43;1.17;;;;;;;;;;4851870;29;20052;-75
2022/11/29 01:55:28;;;;;;;3.50;0.80;;;;;;;;;;4850409;29;20049;-74
2022/11/29 01:58:00;;;;;;;5.47;0.90;;;;;;;;;;4853129;29;20450;-75
2022/11/29 02:00:29;;;;;;;4.80;0.65;;;;;;;;;;4852356;29;20057;-75
2022/11/29 02:03:11;;;;;;;10.75;1.52;;;;;;;;;;4852328;29;20414;-74
2022/11/29 02:05:47;;;;;;;3.65;1.02;;;;;;;;;;4854601;29;20052;-74
2022/11/29 02:08:40;;;;;;;8.80;1.88;;;;;;;;;;4853864;29;20057;-81
2022/11/29 02:11:44;;;;;;;7.25;1.52;;;;;;;;;;4854043;29;20050;-72
2022/11/29 02:14:28;;;;;;;8.93;1.33;;;;;;;;;;4854540;29;20054;-74
2022/11/29 02:17:07;;;;;;;6.25;1.13;;;;;;;;;;4852965;29;20053;-75
2022/11/29 02:19:56;;;;;;;7.00;1.20;;;;;;;;;;4854297;29;20050;-72
2022/11/29 02:22:30;;;;;;;8.80;1.05;;;;;;;;;;4854215;29;20049;-75
2022/11/29 02:25:11;;;;;;;5.82;1.13;;;;;;;;;;4853880;29;20537;-75
2022/11/29 02:28:25;;;;;;;8.00;1.00;;;;;;;;;;4853644;29;20041;-73
2022/11/29 02:31:17;;;;;;;4.47;1.02;;;;;;;;;;4851003;29;20053;-74
2022/11/29 02:34:14;;;;;;;4.45;1.30;;;;;;;;;;4852933;29;20517;-73
2022/11/29 02:37:03;;;;;;;5.90;1.23;;;;;;;;;;4853954;29;20054;-74
2022/11/29 02:39:48;;;;;;;7.93;0.90;;;;;;;;;;4854665;29;20921;-76
2022/11/29 02:42:27;;;;;;;8.38;1.60;;;;;;;;;;4853704;29;20053;-75
2022/11/29 02:45:47;;;;;;;3.10;0.93;;;;;;;;;;4852654;29;20049;-73
2022/11/29 02:48:38;;;;;;;4.75;1.35;;;;;;;;;;4853525;29;20041;-73
2022/11/29 02:51:20;;;;;;;10.32;1.70;;;;;;;;;;4854134;29;20061;-74
2022/11/29 02:54:15;;;;;;;8.00;1.48;;;;;;;;;;4853775;29;20073;-73
2022/11/29 02:56:58;;;;;;;4.38;1.10;;;;;;;;;;4853663;29;20041;-75
2022/11/29 02:59:41;;;;;;;9.90;1.27;;;;;;;;;;4854241;29;20519;-73
2022/11/29 03:02:31;;;;;;;6.30;1.30;;;;;;;;;;4853783;29;20390;-78
2022/11/29 03:05:29;;;;;;;9.65;1.30;;;;;;;;;;4853708;29;20057;-73
2022/11/29 03:08:35;;;;;;;5.93;1.30;;;;;;;;;;4853009;29;20513;-74
2022/11/29 03:11:09;;;;;;;8.30;1.60;;;;;;;;;;4853506;29;20041;-75
2022/11/29 03:14:04;;;;;;;5.68;1.30;;;;;;;;;;4853843;29;20422;-73
2022/11/29 03:16:51;;;;;;;4.95;1.30;;;;;;;;;;4854483;29;20049;-74
2022/11/29 03:19:36;;;;;;;6.03;1.35;;;;;;;;;;4854205;29;20053;-73
2022/11/29 03:22:33;;;;;;;5.05;1.25;;;;;;;;;;4854030;29;20057;-72
2022/11/29 03:25:18;;;;;;;9.38;1.38;;;;;;;;;;4855797;29;20516;-75
2022/11/29 03:28:17;;;;;;;9.88;1.35;;;;;;;;;;4857212;29;20057;-75
2022/11/29 03:31:13;;;;;;;6.85;1.10;;;;;;;;;;4857210;29;20062;-74
2022/11/29 03:33:49;;;;;;;10.07;1.50;;;;;;;;;;4853625;29;20069;-74
2022/11/29 03:36:26;;;;;;;8.75;1.20;;;;;;;;;;4857311;29;20049;-74
2022/11/29 03:39:03;;;;;;;11.05;1.55;;;;;;;;;;4856835;29;20490;-74
2022/11/29 03:41:54;;;;;;;10.82;1.55;;;;;;;;;;4857153;29;20563;-72
2022/11/29 03:44:33;;;;;;;11.88;1.33;;;;;;;;;;4856614;29;20057;-76
2022/11/29 03:47:14;;;;;;;4.68;1.40;;;;;;;;;;4857296;29;20052;-72
2022/11/29 03:49:55;;;;;;;6.70;1.27;;;;;;;;;;4856799;29;20054;-75
2022/11/29 03:52:52;;;;;;;10.23;1.73;;;;;;;;;;4855935;29;20486;-74
2022/11/29 03:55:28;;;;;;;10.43;2.00;;;;;;;;;;4856653;29;20064;-74
2022/11/29 03:58:28;;;;;;;8.95;2.20;;;;;;;;;;4856390;29;20477;-72
2022/11/29 04:01:16;;;;;;;7.32;1.30;;;;;;;;;;4856468;29;20053;-74
2022/11/29 04:03:54;;;;;;;7.00;1.80;;;;;;;;;;4857537;29;20049;-72
2022/11/29 04:06:59;;;;;;;9.85;1.40;;;;;;;;;;4849619;29;20057;-73
2022/11/29 04:10:13;;;;;;;8.88;1.40;;;;;;;;;;4857094;29;20057;-74
2022/11/29 04:12:54;;;;;;;7.85;1.30;;;;;;;;;;4856556;29;20485;-76
2022/11/29 04:15:34;;;;;;;9.35;2.40;;;;;;;;;;4856244;29;20405;-74
2022/11/29 04:18:31;;;;;;;8.13;1.27;;;;;;;;;;4856127;29;20712;-76
2022/11/29 04:21:01;;;;;;;7.75;1.25;;;;;;;;;;4855897;29;20053;-74
2022/11/29 04:23:37;;;;;;;8.75;1.55;;;;;;;;;;4855915;29;20516;-72
2022/11/29 04:26:19;;;;;;;9.15;1.25;;;;;;;;;;4854369;29;20072;-73
2022/11/29 04:28:52;;;;;;;9.63;1.45;;;;;;;;;;4855860;29;20057;-74
2022/11/29 04:31:31;;;;;;;8.90;1.63;;;;;;;;;;4854688;29;20053;-73
2022/11/29 04:34:32;;;;;;;7.25;1.27;;;;;;;;;;4856320;29;20049;-73
2022/11/29 04:37:29;;;;;;;12.80;1.35;;;;;;;;;;4855633;29;20530;-73
2022/11/29 04:40:08;;;;;;;10.18;1.35;;;;;;;;;;4856174;29;20056;-75
2022/11/29 04:42:53;;;;;;;8.05;1.63;;;;;;;;;;4855466;29;20064;-74
2022/11/29 04:46:04;;;;;;;7.65;1.40;;;;;;;;;;4855650;29;20441;-74
2022/11/29 04:48:53;;;;;;;9.38;1.30;;;;;;;;;;4853197;29;20060;-72
2022/11/29 04:51:41;;;;;;;10.68;1.42;;;;;;;;;;4853242;29;20054;-75
2022/11/29 04:54:43;;;;;;;9.15;1.88;;;;;;;;;;4855127;29;20066;-73
2022/11/29 04:57:52;;;;;;;6.13;1.23;;;;;;;;;;4855489;29;20038;-73
2022/11/29 05:00:23;;;;;;;5.72;1.25;;;;;;;;;;4855418;29;20536;-73
2022/11/29 05:03:27;;;;;;;6.57;1.10;;;;;;;;;;4856424;29;20049;-75
2022/11/29 05:06:10;;;;;;;7.72;1.77;;;;;;;;;;4854081;29;20073;-74
2022/11/29 05:09:02;;;;;;;7.78;1.52;;;;;;;;;;4855176;29;20057;-74
2022/11/29 05:12:03;;;;;;;6.47;1.10;;;;;;;;;;4855498;29;20055;-74
2022/11/29 05:14:56;;;;;;;9.75;1.15;;;;;;;;;;4854833;29;20060;-74
2022/11/29 05:17:42;;;;;;;12.27;1.70;;;;;;;;;;4853659;29;20422;-74
2022/11/29 05:20:47;;;;;;;5.00;1.35;;;;;;;;;;4855788;29;20045;-74
2022/11/29 05:23:17;;;;;;;6.95;1.40;;;;;;;;;;4855159;29;20053;-73
2022/11/29 05:26:00;;;;;;;10.27;1.75;;;;;;;;;;4855267;29;20409;-74
2022/11/29 05:28:46;;;;;;;9.23;1.85;;;;;;;;;;4854504;29;20068;-74
2022/11/29 05:31:41;;;;;;;7.45;1.33;;;;;;;;;;4854325;29;20152;-75
2022/11/29 05:34:44;;;;;;;10.70;1.63;;;;;;;;;;4854723;29;20045;-74
2022/11/29 05:37:38;;;;;;;6.88;1.40;;;;;;;;;;4854837;29;20494;-73
2022/11/29 05:40:20;;;;;;;11.93;1.52;;;;;;;;;;4854911;29;20053;-73
2022/11/29 05:43:28;;;;;;;6.68;1.58;;;;;;;;;;4854971;29;20060;-74
2022/11/29 05:46:13;;;;;;;12.45;1.75;;;;;;;;;;4854067;29;20692;-74
2022/11/29 05:49:08;;;;;;;9.30;1.30;;;;;;;;;;4854345;29;20037;-73
2022/11/29 05:52:08;;;;;;;9.10;1.55;;;;;;;;;;4854521;29;20049;-74
2022/11/29 05:54:47;;;;;;;12.02;1.58;;;;;;;;;;4846758;29;20057;-73
2022/11/29 05:57:54;;;;;;;6.13;1.05;;;;;;;;;;4854820;29;20057;-73
2022/11/29 06:00:31;;;;;;;4.72;1.38;;;;;;;;;;4853396;29;20120;-74
2022/11/29 06:03:50;;;;;;;10.35;1.23;;;;;;;;;;4854448;29;20057;-73
2022/11/29 06:06:44;;;;;;;10.35;1.30;;;;;;;;;;4853898;29;20053;-72
2022/11/29 06:09:41;;;;;;;4.22;0.98;;;;;;;;;;4854286;29;20061;-74
2022/11/29 06:12:19;;;;;;;7.45;1.63;;;;;;;;;;4853751;29;20061;-74
2022/11/29 06:15:30;;;;;;;9.57;1.08;;;;;;;;;;4854729;29;20049;-73
2022/11/29 06:18:50;;;;;;;8.30;1.25;;;;;;;;;;4854410;29;20061;-74
2022/11/29 06:21:36;;;;;;;4.90;0.93;;;;;;;;;;4839563;29;20498;-74
2022/11/29 06:24:15;;;;;;;8.40;1.33;;;;;;;;;;4854349;29;20044;-73
2022/11/29 06:27:13;;;;;;;5.95;1.20;;;;;;;;;;4854249;29;20060;-74
2022/11/29 06:30:06;;;;;;;6.80;1.13;;;;;;;;;;4854194;29;20054;-73
2022/11/29 06:33:12;;;;;;;9.32;1.40;;;;;;;;;;4854108;29;20062;-74
2022/11/29 06:36:02;;;;;;;;;;;;;;;;;;4854375;29;20536;-74
2022/11/29 06:38:32;;;;;;;7.50;1.05;;;;;;;;;;4850602;29;19935;-75
2022/11/29 06:41:02;;;;;;;7.63;1.30;;;;;;;;;;4854143;29;20053;-74
2022/11/29 06:43:32;;;;;;;6.78;1.20;;;;;;;;;;4854093;29;20050;-73
2022/11/29 06:46:29;;;;;;;6.20;1.70;;;;;;;;;;4854077;29;20052;-74
2022/11/29 06:49:03;;;;;;;9.55;1.20;;;;;;;;;;4855136;29;20056;-72
2022/11/29 06:51:51;;;;;;;5.65;0.93;;;;;;;;;;4860771;29;20041;-73
2022/11/29 06:54:50;;;;;;;10.23;1.77;;;;;;;;;;4859057;29;20216;-72
2022/11/29 06:57:28;;;;;;;4.70;1.25;;;;;;;;;;4853325;29;20060;-75
2022/11/29 07:00:16;;;;;;;6.22;1.45;;;;;;;;;;4855939;29;20046;-75
2022/11/29 07:03:21;;;;;;;6.88;1.58;;;;;;;;;;4857503;29;20053;-73
2022/11/29 07:05:51;;;;;;;3.90;1.38;;;;;;;;;;4857287;29;20049;-72
2022/11/29 07:08:24;;;;;;;10.57;1.60;;;;;;;;;;4857211;29;20065;-73
2022/11/29 07:10:54;;;;;;;7.70;1.10;;;;;;;;;;4857186;29;20053;-73
2022/11/29 07:13:25;;;;;;;11.00;1.50;;;;;;;;;;4856021;29;20088;-73
2022/11/29 07:16:21;;;;;;;8.98;1.13;;;;;;;;;;4857675;29;20053;-73
2022/11/29 07:19:13;;;;;;;9.50;1.90;;;;;;;;;;4857765;29;20529;-74
2022/11/29 07:22:14;;;;;;;11.10;1.30;;;;;;;;;;4855376;29;20053;-73
2022/11/29 07:24:59;;;;;;;4.97;0.98;;;;;;;;;;4857216;29;20061;-73
2022/11/29 07:27:31;;;;;;;7.53;1.25;;;;;;;;;;4856322;29;20052;-73
2022/11/29 07:30:15;;;;;;;11.23;1.33;;;;;;;;;;4856569;29;20070;-73
2022/11/29 07:32:56;;;;;;;6.90;1.42;;;;;;;;;;4857020;29;20045;-74
2022/11/29 07:35:49;;;;;;;9.98;1.10;;;;;;;;;;4856977;29;20050;-74
2022/11/29 07:38:40;;;;;;;5.32;1.30;;;;;;;;;;4856661;29;20045;-75
2022/11/29 07:41:23;;;;;;;4.38;1.23;;;;;;;;;;4857188;29;20056;-73
2022/11/29 07:44:13;;;;;;;11.70;1.27;;;;;;;;;;4856766;29;20072;-75
2022/11/29 07:46:44;;;;;;;7.30;1.35;;;;;;;;;;4856450;29;20049;-74
2022/11/29 07:49:13;;;;;;;7.05;1.70;;;;;;;;;;4855673;29;20054;-74
2022/11/29 07:51:43;;;;;;;8.75;1.40;;;;;;;;;;4855800;29;20080;-74
2022/11/29 07:54:17;;;;;;;7.57;1.33;;;;;;;;;;4856616;29;20072;-73
2022/11/29 07:56:48;;;;;;;7.18;2.05;;;;;;;;;;4856536;29;20529;-73
2022/11/29 07:59:18;;;;;;;3.92;1.40;;;;;;;;;;4856425;29;20428;-73
2022/11/29 08:01:48;;;;;;;5.55;1.13;;;;;;;;;;4856630;29;20741;-73
2022/11/29 08:04:18;;;;;;;4.97;1.30;;;;;;;;;;4856475;29;20053;-73
2022/11/29 08:06:48;;;;;;;10.10;1.30;;;;;;;;;;4856264;29;20049;-73
2022/11/29 08:09:17;;;;;;;12.85;1.60;;;;;;;;;;4855092;29;20062;-74
2022/11/29 08:11:47;;;;;;;5.72;1.30;;;;;;;;;;4855295;29;20053;-74
2022/11/29 08:14:17;;;;;;;6.75;1.27;;;;;;;;;;4856290;29;20847;-73
2022/11/29 08:16:47;;;;;;;8.90;1.77;;;;;;;;;;4855947;29;20050;-74
2022/11/29 08:19:17;;;;;;;8.85;1.33;;;;;;;;;;4854543;29;20050;-74
2022/11/29 08:21:47;;;;;;;7.15;1.23;;;;;;;;;;4855873;29;20449;-75
2022/11/29 08:24:16;;;;;;;5.15;1.27;;;;;;;;;;4854440;29;20053;-75
2022/11/29 08:26:46;;;;;;;4.22;1.13;;;;;;;;;;4855588;29;20513;-74
2022/11/29 08:29:18;;;;;;;9.35;1.55;;;;;;;;;;4854844;29;20072;-73
2022/11/29 08:31:53;;;;;;;7.03;1.33;;;;;;;;;;4856323;29;20049;-73
2022/11/29 08:34:24;;;;;;;5.10;1.20;;;;;;;;;;4856235;29;20559;-74
2022/11/29 08:36:57;;;;;;;7.40;1.60;;;;;;;;;;4854503;29;20433;-72
2022/11/29 08:39:27;;;;;;;5.10;1.70;;;;;;;;;;4855564;29;20049;-75
2022/11/29 08:41:56;;;;;;;13.07;1.73;;;;;;;;;;4855659;29;20053;-73
2022/11/29 08:44:26;;;;;;;6.18;1.60;;;;;;;;;;4855312;29;20056;-74
2022/11/29 08:50:02;;;;;;;5.95;1.60;;;;;;;;;;4855557;29;20050;-73
2022/11/29 08:55:30;;;;;;;12.32;2.88;;;;;;;;;;4855093;29;20417;-73
2022/11/29 08:58:04;;;;;;;4.07;1.38;;;;;;;;;;4855346;29;20041;-74
2022/11/29 09:00:34;;;;;;;5.60;1.50;;;;;;;;;;4855329;29;20057;-74
2022/11/29 09:05:54;;;;;;;5.65;1.80;;;;;;;;;;4855229;29;20061;-73
2022/11/29 09:08:24;;;;;;;5.97;1.75;;;;;;;;;;4855661;29;20045;-74
2022/11/29 09:10:54;;;;;;;8.48;1.65;;;;;;;;;;4855454;29;20056;-73
2022/11/29 09:13:24;;;;;;;4.97;1.92;;;;;;;;;;4855047;29;20053;-73
2022/11/29 09:15:53;;;;;;;13.10;4.22;;;;;;;;;;4855507;29;20053;-74
2022/11/29 09:18:23;;;;;;;8.60;1.85;;;;;;;;;;4855078;29;20049;-74
2022/11/29 09:20:53;;;;;;;10.98;1.85;;;;;;;;;;4855040;29;20054;-74
2022/11/29 09:23:23;;;;;;;11.82;2.13;;;;;;;;;;4854282;29;20045;-73
2022/11/29 09:25:53;;;;;;;10.48;2.47;;;;;;;;;;4854994;29;20060;-74
2022/11/29 09:28:23;;;;;;;11.82;2.20;;;;;;;;;;4854840;29;20445;-73
2022/11/29 09:31:04;;;;;;;7.28;1.55;;;;;;;;;;4855089;29;20089;-73
2022/11/29 09:33:35;;;;;;;13.93;7.40;;;;;;;;;;4854084;29;20053;-74
2022/11/29 09:36:07;;;;;;;9.38;2.33;;;;;;;;;;4855316;29;20049;-74
2022/11/29 09:38:38;;;;;;;8.85;1.55;;;;;;;;;;4854771;29;20128;-75
2022/11/29 09:41:20;;;;;;;13.75;2.72;;;;;;;;;;4854730;29;20061;-75
2022/11/29 09:44:09;;;;;;;14.77;2.53;;;;;;;;;;4862754;29;20050;-77
2022/11/29 09:46:44;;;;;;;11.45;1.33;;;;;;;;;;4856305;29;20516;-76
2022/11/29 09:49:14;;;;;;;;;;;;;;;;;;4854095;29;20054;-78
2022/11/29 09:52:04;;;;;;;11.27;1.48;;;;;;;;;;4854150;29;19928;-75
2022/11/29 09:54:51;;;;;;;4.75;1.00;;;;;;;;;;4854728;29;20045;-77
2022/11/29 09:57:25;;;;;;;11.43;1.15;;;;;;;;;;4854750;29;20041;-76
2022/11/29 10:00:01;;;;;;;9.88;1.40;;;;;;;;;;4853900;29;20421;-76
2022/11/29 10:02:32;;;;;;;11.15;1.25;;;;;;;;;;4858953;29;20053;-76
2022/11/29 10:05:14;;;;;;;6.47;1.35;;;;;;;;;;4854809;29;20058;-75
2022/11/29 10:08:11;;;;;;;9.77;1.33;;;;;;;;;;4854953;29;20889;-74
2022/11/29 10:10:50;;;;;;;13.43;2.08;;;;;;;;;;4854130;29;20056;-78
2022/11/29 10:13:33;;;;;;;9.13;1.50;;;;;;;;;;4853056;29;20060;-74
2022/11/29 10:16:24;;;;;;;9.35;1.67;;;;;;;;;;4852957;29;20375;-75
2022/11/29 10:19:03;;;;;;;12.23;1.48;;;;;;;;;;4854757;29;20072;-76
2022/11/29 10:21:37;;;;;;;12.05;1.90;;;;;;;;;;4854143;29;20060;-77
2022/11/29 10:24:16;;;;;;;11.45;1.70;;;;;;;;;;4854150;29;20041;-76
2022/11/29 10:26:47;;;;;;;8.38;1.50;;;;;;;;;;4854846;29;20057;-72
2022/11/29 10:29:16;;;;;;;8.73;1.27;;;;;;;;;;4868588;29;20068;-78
2022/11/29 10:31:48;;;;;;;7.35;1.63;;;;;;;;;;4891513;29;20060;-74
2022/11/29 10:34:21;;;;;;;13.30;1.30;;;;;;;;;;4893972;29;20048;-76
2022/11/29 10:36:51;;;;;;;12.85;1.67;;;;;;;;;;4895844;29;20514;-77
2022/11/29 10:39:44;;;;;;;9.77;1.25;;;;;;;;;;4894964;29;20052;-75
2022/11/29 10:45:23;;;;;;;6.47;1.17;;;;;;;;;;4893713;29;20362;-76
2022/11/29 10:48:01;;;;;;;9.30;1.10;;;;;;;;;;4894725;29;20046;-76
2022/11/29 10:50:34;;;;;;;9.50;1.50;;;;;;;;;;4894165;29;20495;-75
2022/11/29 10:53:08;;;;;;;12.68;1.25;;;;;;;;;;4895346;29;20049;-73
2022/11/29 10:55:54;;;;;;;9.50;2.00;;;;;;;;;;4895252;29;20055;-76
2022/11/29 10:58:26;;;;;;;13.43;1.25;;;;;;;;;;4894677;29;20538;-71
2022/11/29 11:00:59;;;;;;;8.90;2.28;;;;;;;;;;4894909;29;20051;-72
2022/11/29 11:03:55;;;;;;;8.63;1.30;;;;;;;;;;4894991;29;20067;-73
2022/11/29 11:06:55;;;;;;;12.30;1.60;;;;;;;;;;4894722;29;20435;-72
2022/11/29 11:09:31;;;;;;;9.35;1.13;;;;;;;;;;4894325;29;20060;-74
2022/11/29 11:12:16;;;;;;;6.88;1.50;;;;;;;;;;4894474;29;20420;-72
2022/11/29 11:14:47;;;;;;;6.32;1.13;;;;;;;;;;4894665;29;20055;-73
2022/11/29 11:17:31;;;;;;;9.27;1.00;;;;;;;;;;4894506;29;20779;-73
2022/11/29 11:20:22;;;;;;;8.98;1.38;;;;;;;;;;4894188;29;20055;-73
2022/11/29 11:23:05;;;;;;;7.35;1.38;;;;;;;;;;4894341;29;20069;-73
2022/11/29 11:25:39;;;;;;;6.75;0.80;;;;;;;;;;4894892;29;20063;-82
2022/11/29 11:28:21;;;;;;;6.70;1.20;;;;;;;;;;4893997;29;20052;-75
2022/11/29 11:30:58;;;;;;;5.95;0.95;;;;;;;;;;4879570;29;20049;-76
2022/11/29 11:33:32;;;;;;;4.90;1.40;;;;;;;;;;4874562;29;20052;-76
2022/11/29 11:36:35;;;;;;;10.02;1.60;;;;;;;;;;4874177;29;20405;-76
2022/11/29 11:39:18;;;;;;;5.65;0.77;;;;;;;;;;4862549;29;20536;-76
2022/11/29 11:44:51;;;;;;;10.43;1.25;;;;;;;;;;4873204;29;20057;-73
2022/11/29 11:47:32;;;;;;;8.25;1.35;;;;;;;;;;4873825;29;20049;-77
2022/11/29 11:50:02;;;;;;;6.78;0.98;;;;;;;;;;4874743;29;20052;-75
2022/11/29 11:52:53;;;;;;;8.18;1.50;;;;;;;;;;4874976;29;20060;-75
2022/11/29 11:55:28;;;;;;;12.25;1.10;;;;;;;;;;4875968;29;20053;-75
2022/11/29 11:58:03;;;;;;;8.57;1.30;;;;;;;;;;4873890;29;20053;-75
2022/11/29 12:01:12;;;;;;;5.68;0.98;;;;;;;;;;4875045;29;20061;-78
2022/11/29 12:04:20;;;;;;;16.80;4.50;;;;;;;;;;4873413;29;20049;-75
2022/11/29 12:06:57;;;;;;;11.90;1.40;;;;;;;;;;4864704;29;20084;-77
2022/11/29 12:09:47;;;;;;;6.50;0.93;;;;;;;;;;4874327;29;20068;-76
2022/11/29 12:12:20;;;;;;;7.43;1.02;;;;;;;;;;4874998;29;20167;-75
2022/11/29 12:15:01;;;;;;;6.88;0.90;;;;;;;;;;4875098;29;20060;-74
2022/11/29 12:17:40;;;;;;;5.50;0.95;;;;;;;;;;4875121;29;20049;-74
2022/11/29 12:20:22;;;;;;;10.30;1.13;;;;;;;;;;4874744;29;20057;-75
2022/11/29 12:23:10;;;;;;;11.23;3.03;;;;;;;;;;4880494;29;20060;-75
2022/11/29 12:25:51;;;;;;;6.47;1.17;;;;;;;;;;4875146;29;20046;-75
2022/11/29 12:28:31;;;;;;;6.22;1.20;;;;;;;;;;4874336;29;20056;-75
2022/11/29 12:31:34;;;;;;;3.75;0.98;;;;;;;;;;4874396;29;20504;-75
2022/11/29 12:34:07;;;;;;;11.05;1.33;;;;;;;;;;4874413;29;20420;-75
2022/11/29 12:37:18;;;;;;;6.13;1.02;;;;;;;;;;4874525;29;20052;-74
2022/11/29 12:39:51;;;;;;;6.57;1.33;;;;;;;;;;4874923;29;20045;-73
2022/11/29 12:42:53;;;;;;;7.45;1.10;;;;;;;;;;4874122;29;20053;-74
2022/11/29 12:45:33;;;;;;;5.78;1.10;;;;;;;;;;4874411;29;20063;-75
2022/11/29 12:48:21;;;;;;;7.90;1.40;;;;;;;;;;4874176;29;20531;-75
2022/11/29 12:51:30;;;;;;;4.25;0.90;;;;;;;;;;4873801;29;20052;-76
2022/11/29 12:54:38;;;;;;;4.38;0.85;;;;;;;;;;4870948;29;20057;-75
2022/11/29 12:57:13;;;;;;;4.65;1.00;;;;;;;;;;4874162;29;20068;-78
2022/11/29 13:00:09;;;;;;;5.30;1.23;;;;;;;;;;4874358;29;20057;-74
2022/11/29 13:03:16;;;;;;;3.08;0.80;;;;;;;;;;4873411;29;20049;-72
2022/11/29 13:05:53;;;;;;;7.70;0.98;;;;;;;;;;4873920;29;20072;-73
2022/11/29 13:08:51;;;;;;;8.65;0.70;;;;;;;;;;4874170;29;20053;-74
2022/11/29 13:11:29;;;;;;;8.27;0.90;;;;;;;;;;4872356;29;20060;-74
2022/11/29 13:14:15;;;;;;;7.90;1.15;;;;;;;;;;4873968;29;20045;-76
2022/11/29 13:17:38;;;;;;;5.35;0.90;;;;;;;;;;4873956;29;20068;-74
2022/11/29 13:20:32;;;;;;;9.88;1.95;;;;;;;;;;4873405;29;20060;-76
2022/11/29 13:23:17;;;;;;;2.83;0.70;;;;;;;;;;4874122;29;20052;-74
2022/11/29 13:25:53;;;;;;;5.05;0.90;;;;;;;;;;4873661;29;20053;-76
2022/11/29 13:28:31;;;;;;;4.63;0.70;;;;;;;;;;4873109;29;20417;-74
2022/11/29 13:31:22;;;;;;;6.72;1.20;;;;;;;;;;4873435;29;20148;-73
2022/11/29 13:34:07;;;;;;;7.05;0.90;;;;;;;;;;4873158;29;20048;-75
2022/11/29 13:36:52;;;;;;;6.03;1.15;;;;;;;;;;4873254;29;20049;-73
2022/11/29 13:39:46;;;;;;;5.07;0.98;;;;;;;;;;4872488;29;20417;-73
2022/11/29 13:42:36;;;;;;;2.08;0.70;;;;;;;;;;4871736;29;20060;-74
2022/11/29 13:45:21;;;;;;;3.25;0.77;;;;;;;;;;4869962;29;20068;-74
2022/11/29 13:47:55;;;;;;;6.13;1.00;;;;;;;;;;4875927;29;20519;-76
2022/11/29 13:50:42;;;;;;;3.08;0.90;;;;;;;;;;4872918;29;20053;-78
2022/11/29 13:53:22;;;;;;;4.95;0.82;;;;;;;;;;4873507;29;20053;-77
2022/11/29 13:56:02;;;;;;;9.13;1.63;;;;;;;;;;4873401;29;20049;-74
2022/11/29 13:58:36;;;;;;;6.72;1.48;;;;;;;;;;4873415;29;20061;-75
2022/11/29 14:01:13;;;;;;;7.10;0.90;;;;;;;;;;4872777;29;20751;-73
2022/11/29 14:03:46;;;;;;;8.85;0.90;;;;;;;;;;4873035;29;20398;-75
2022/11/29 14:06:31;;;;;;;3.28;0.55;;;;;;;;;;4872467;29;20041;-77
2022/11/29 14:09:17;;;;;;;8.32;1.17;;;;;;;;;;4872698;29;20053;-76
2022/11/29 14:11:59;;;;;;;8.93;0.90;;;;;;;;;;4871574;29;20072;-75
2022/11/29 14:14:59;;;;;;;9.23;1.05;;;;;;;;;;4872922;29;20049;-78
2022/11/29 14:17:45;;;;;;;7.57;0.65;;;;;;;;;;4873270;29;20064;-75
2022/11/29 14:20:22;;;;;;;3.90;0.60;;;;;;;;;;4873595;29;20756;-76
2022/11/29 14:23:39;;;;;;;12.18;1.30;;;;;;;;;;4872284;29;20045;-74
2022/11/29 14:26:09;;;;;;;6.53;1.20;;;;;;;;;;4872380;29;20064;-74
2022/11/29 14:28:39;;;;;;;4.85;1.05;;;;;;;;;;4872187;29;20087;-75
2022/11/29 14:31:09;;;;;;;5.30;0.90;;;;;;;;;;4872729;29;20068;-74
2022/11/29 14:34:03;;;;;;;5.80;0.95;;;;;;;;;;4871682;29;20064;-76
2022/11/29 14:36:39;;;;;;;4.00;0.80;;;;;;;;;;4871959;29;20057;-75
2022/11/29 14:39:27;;;;;;;8.88;1.05;;;;;;;;;;4872682;29;20056;-75
2022/11/29 14:42:13;;;;;;;;;;;;;;;;;;4873197;29;20053;-75
2022/11/29 14:44:57;;;;;;;4.43;0.70;;;;;;;;;;4872561;29;19927;-74
2022/11/29 14:47:37;;;;;;;7.13;0.98;;;;;;;;;;4872692;29;20057;-75
2022/11/29 14:50:26;;;;;;;7.03;1.20;;;;;;;;;;4872223;29;20061;-75
2022/11/29 14:52:57;;;;;;;4.75;0.60;;;;;;;;;;4873059;29;20053;-76
2022/11/29 14:55:35;;;;;;;4.75;0.70;;;;;;;;;;4872498;29;20408;-75
2022/11/29 14:58:15;;;;;;;6.35;1.20;;;;;;;;;;4871964;29;20104;-76
2022/11/29 15:00:48;;;;;;;;;;;;;;;;;;4873367;29;20049;-76
2022/11/29 15:03:24;;;;;;;5.55;0.75;;;;;;;;;;4872476;29;19934;-76
2022/11/29 15:06:17;;;;;;;6.05;0.68;;;;;;;;;;4872455;29;20052;-76
2022/11/29 15:09:04;;;;;;;3.75;0.70;;;;;;;;;;4872359;29;20038;-76
2022/11/29 15:11:57;;;;;;;6.43;0.88;;;;;;;;;;4871883;29;20528;-76
2022/11/29 15:14:26;;;;;;;2.95;0.80;;;;;;;;;;4871869;29;20049;-75
2022/11/29 15:17:22;;;;;;;3.72;0.75;;;;;;;;;;4872323;29;20489;-76
2022/11/29 15:20:08;;;;;;;9.88;1.15;;;;;;;;;;4872849;29;20053;-74
2022/11/29 15:22:59;;;;;;;4.63;0.75;;;;;;;;;;4875275;29;20053;-76
2022/11/29 15:25:31;;;;;;;6.63;0.60;;;;;;;;;;4875503;29;20041;-75
2022/11/29 15:28:04;;;;;;;4.55;0.70;;;;;;;;;;4875693;29;20064;-78
2022/11/29 15:30:39;;;;;;;6.38;0.85;;;;;;;;;;4875255;29;20053;-74
2022/11/29 15:33:23;;;;;;;2.83;0.60;;;;;;;;;;4875502;29;20064;-75
2022/11/29 15:36:05;;;;;;;5.45;0.70;;;;;;;;;;4875745;29;20049;-77
2022/11/29 15:38:52;;;;;;;3.08;0.85;;;;;;;;;;4875600;29;20064;-76
2022/11/29 15:41:29;;;;;;;3.40;0.93;;;;;;;;;;4875688;29;20049;-75
2022/11/29 15:44:03;;;;;;;4.20;0.65;;;;;;;;;;4873181;29;20053;-75
2022/11/29 15:46:34;;;;;;;4.68;0.70;;;;;;;;;;4875296;29;20056;-74
2022/11/29 15:49:34;;;;;;;2.50;0.50;;;;;;;;;;4875209;29;20079;-77
2022/11/29 15:52:10;;;;;;;2.08;0.52;;;;;;;;;;4866158;29;20053;-75
2022/11/29 15:55:02;;;;;;;3.65;0.63;;;;;;;;;;4874859;29;20049;-75
2022/11/29 15:57:40;;;;;;;6.05;0.85;;;;;;;;;;4874620;29;20049;-75
2022/11/29 16:00:20;;;;;;;5.07;0.90;;;;;;;;;;4874901;29;20045;-80
2022/11/29 16:03:00;;;;;;;8.23;0.70;;;;;;;;;;4875611;29;20053;-77
2022/11/29 16:05:36;;;;;;;1.92;0.65;;;;;;;;;;4874090;29;20516;-74
2022/11/29 16:08:19;;;;;;;1.10;0.63;;;;;;;;;;4874620;29;20045;-76
2022/11/29 16:10:51;;;;;;;5.22;0.77;;;;;;;;;;4874496;29;20389;-74
2022/11/29 16:13:29;;;;;;;1.63;0.70;;;;;;;;;;4874843;29;20052;-75
2022/11/29 16:16:16;;;;;;;2.65;0.60;;;;;;;;;;4874895;29;20056;-77
2022/11/29 16:18:49;;;;;;;4.13;0.80;;;;;;;;;;4873360;29;20065;-76
2022/11/29 16:21:29;;;;;;;6.78;1.00;;;;;;;;;;4874736;29;20058;-75
2022/11/29 16:24:12;;;;;;;3.28;0.52;;;;;;;;;;4875131;29;20061;-74